Time;durP1;ratioP1;P1;durP2;ratioP2;P2;SDS_P1;SDS_P2;PMS_P1;PMS_P2;Temp;Humidity;BMP_temperature;BMP_pressure;BME280_temperature;BME280_humidity;BME280_pressure;Samples;Min_cycle;Max_cycle;Signal;HPM_P1;HPM_P2
2023/10/27 00:00:57;;;;;;;2.08;1.50;;;9.10;99.90;;;;;;5022212;28;20037;-60
2023/10/27 00:03:23;;;;;;;1.98;1.80;;;9.00;99.90;;;;;;5029481;28;20509;-59
2023/10/27 00:05:48;;;;;;;3.17;1.77;;;9.10;99.90;;;;;;5028641;28;20021;-60
2023/10/27 00:08:14;;;;;;;2.67;1.52;;;9.10;99.90;;;;;;5025487;28;20033;-59
2023/10/27 00:10:39;;;;;;;2.55;1.73;;;9.00;99.90;;;;;;5026415;28;20025;-60
2023/10/27 00:13:05;;;;;;;1.77;1.33;;;9.10;99.90;;;;;;5026364;28;20534;-60
2023/10/27 00:15:30;;;;;;;1.85;1.50;;;9.00;99.90;;;;;;5023800;28;20029;-60
2023/10/27 00:17:59;;;;;;;2.58;1.60;;;9.10;99.90;;;;;;5026674;28;20036;-58
2023/10/27 00:20:25;;;;;;;1.90;1.50;;;9.00;99.90;;;;;;5017820;28;20021;-60
2023/10/27 00:22:51;;;;;;;2.95;1.35;;;9.00;99.90;;;;;;5022361;28;20029;-60
2023/10/27 00:25:16;;;;;;;1.60;1.50;;;9.00;99.90;;;;;;5026159;28;20037;-59
2023/10/27 00:27:42;;;;;;;1.73;1.15;;;9.00;99.90;;;;;;5025602;28;20045;-61
2023/10/27 00:30:09;;;;;;;1.88;1.60;;;9.00;99.90;;;;;;5022635;28;20462;-59
2023/10/27 00:32:36;;;;;;;4.18;1.80;;;9.00;99.90;;;;;;5023128;28;20028;-59
2023/10/27 00:35:04;;;;;;;2.25;1.30;;;9.00;99.90;;;;;;5021949;28;20028;-59
2023/10/27 00:37:34;;;;;;;1.88;1.38;;;9.00;99.90;;;;;;5022170;28;20120;-59
2023/10/27 00:40:01;;;;;;;3.95;1.48;;;9.00;99.90;;;;;;5024319;28;20025;-60
2023/10/27 00:42:26;;;;;;;1.52;0.80;;;9.00;99.90;;;;;;5020531;28;20029;-59
2023/10/27 00:44:52;;;;;;;2.42;1.30;;;9.00;99.90;;;;;;5028092;28;20036;-58
2023/10/27 00:47:18;;;;;;;1.63;1.33;;;9.00;99.90;;;;;;5014676;28;20043;-59
2023/10/27 00:49:44;;;;;;;1.85;1.40;;;9.00;99.90;;;;;;5038965;28;20156;-60
2023/10/27 00:52:12;;;;;;;1.40;1.00;;;9.00;99.90;;;;;;5026474;28;20139;-58
2023/10/27 00:54:37;;;;;;;3.50;1.60;;;9.00;99.90;;;;;;5026379;28;20029;-59
2023/10/27 00:57:04;;;;;;;1.65;1.20;;;9.00;99.90;;;;;;5027030;28;20036;-57
2023/10/27 00:59:32;;;;;;;3.72;1.80;;;9.00;99.90;;;;;;5021036;28;20072;-60
2023/10/27 01:01:58;;;;;;;1.48;1.15;;;9.00;99.90;;;;;;5019902;28;20401;-60
2023/10/27 01:04:24;;;;;;;2.05;1.20;;;9.00;99.90;;;;;;5023829;28;20033;-58
2023/10/27 01:06:50;;;;;;;1.95;1.42;;;9.00;99.90;;;;;;5026513;28;20646;-60
2023/10/27 01:09:16;;;;;;;2.25;1.50;;;9.00;99.90;;;;;;5025428;28;20108;-59
2023/10/27 01:11:42;;;;;;;2.35;1.45;;;9.00;99.90;;;;;;5024426;28;20033;-57
2023/10/27 01:14:07;;;;;;;3.42;1.73;;;9.00;99.90;;;;;;5023336;28;20036;-59
2023/10/27 01:16:33;;;;;;;2.20;1.48;;;9.00;99.90;;;;;;5022538;28;20076;-60
2023/10/27 01:18:59;;;;;;;2.00;1.40;;;9.00;99.90;;;;;;5025329;28;20116;-58
2023/10/27 01:21:24;;;;;;;1.23;0.90;;;8.90;99.90;;;;;;5022014;28;20041;-59
2023/10/27 01:23:50;;;;;;;0.88;0.73;;;8.90;99.90;;;;;;5022470;28;20041;-58
2023/10/27 01:26:15;;;;;;;1.98;1.35;;;9.00;99.90;;;;;;5022487;28;20068;-59
2023/10/27 01:28:41;;;;;;;2.38;1.45;;;8.90;99.90;;;;;;5019785;28;20037;-59
2023/10/27 01:31:06;;;;;;;1.95;1.20;;;8.90;99.90;;;;;;5025330;28;20052;-58
2023/10/27 01:33:32;;;;;;;1.98;1.25;;;9.00;99.90;;;;;;5020411;28;20030;-59
2023/10/27 01:36:01;;;;;;;1.15;0.90;;;9.00;99.90;;;;;;5017298;28;20022;-57
2023/10/27 01:38:26;;;;;;;1.70;0.70;;;8.90;99.90;;;;;;5024586;28;20044;-59
2023/10/27 01:40:52;;;;;;;1.48;1.25;;;8.90;99.90;;;;;;5020459;28;20055;-58
2023/10/27 01:43:17;;;;;;;4.50;1.45;;;8.90;99.90;;;;;;5021135;28;20037;-58
2023/10/27 01:45:43;;;;;;;1.80;1.60;;;8.90;99.90;;;;;;5018296;28;20065;-59
2023/10/27 01:48:08;;;;;;;1.80;1.10;;;8.90;99.90;;;;;;5018721;28;20080;-56
2023/10/27 01:50:34;;;;;;;1.15;1.05;;;8.90;99.90;;;;;;5020279;28;20704;-59
2023/10/27 01:52:59;;;;;;;1.80;1.33;;;8.90;99.90;;;;;;5019247;28;20037;-59
2023/10/27 01:55:25;;;;;;;1.88;1.30;;;8.90;99.90;;;;;;5027771;28;20094;-59
2023/10/27 01:57:50;;;;;;;2.22;1.23;;;8.90;99.90;;;;;;5023490;28;20037;-59
2023/10/27 02:00:16;;;;;;;1.70;1.25;;;8.90;99.90;;;;;;5037139;28;20033;-59
2023/10/27 02:02:41;;;;;;;2.25;1.23;;;8.90;99.90;;;;;;5025023;28;20025;-60
2023/10/27 02:05:08;;;;;;;1.27;1.15;;;8.90;99.90;;;;;;5027477;28;20498;-60
2023/10/27 02:07:33;;;;;;;2.67;1.25;;;8.90;99.90;;;;;;5037634;28;20029;-60
2023/10/27 02:09:59;;;;;;;2.40;1.77;;;8.90;99.90;;;;;;5036823;28;20428;-60
2023/10/27 02:12:26;;;;;;;1.42;1.33;;;8.80;99.90;;;;;;5035821;28;20029;-60
2023/10/27 02:14:51;;;;;;;1.42;1.20;;;8.80;99.90;;;;;;5035256;28;20112;-59
2023/10/27 02:17:17;;;;;;;1.30;1.20;;;8.80;99.90;;;;;;5031066;28;20104;-59
2023/10/27 02:19:43;;;;;;;2.17;1.13;;;8.80;99.90;;;;;;5036865;28;20025;-59
2023/10/27 02:22:08;;;;;;;2.45;0.95;;;8.80;99.90;;;;;;5035210;28;20168;-55
2023/10/27 02:24:34;;;;;;;1.13;0.88;;;8.80;99.90;;;;;;5036176;28;20138;-59
2023/10/27 02:26:59;;;;;;;1.60;1.15;;;8.80;99.90;;;;;;5035936;28;20087;-58
2023/10/27 02:29:26;;;;;;;1.92;1.33;;;8.80;99.90;;;;;;5037330;28;20909;-60
2023/10/27 02:31:51;;;;;;;2.33;0.93;;;8.80;99.90;;;;;;5036526;28;20440;-57
2023/10/27 02:34:17;;;;;;;1.70;1.30;;;8.70;99.90;;;;;;5035798;28;20025;-59
2023/10/27 02:36:43;;;;;;;1.13;0.90;;;8.80;99.90;;;;;;5031407;28;20029;-59
2023/10/27 02:39:08;;;;;;;3.55;1.10;;;8.80;99.90;;;;;;5026627;28;20029;-58
2023/10/27 02:41:35;;;;;;;3.15;1.15;;;8.80;99.90;;;;;;5032844;28;20021;-57
2023/10/27 02:44:01;;;;;;;3.30;1.00;;;8.70;99.90;;;;;;5032790;28;20087;-59
2023/10/27 02:46:26;;;;;;;1.52;1.33;;;8.70;99.90;;;;;;5026282;28;20026;-57
2023/10/27 02:48:52;;;;;;;1.55;1.25;;;8.70;99.90;;;;;;5024483;28;20065;-57
2023/10/27 02:51:18;;;;;;;3.30;1.00;;;8.60;99.90;;;;;;5026020;28;20037;-58
2023/10/27 02:53:44;;;;;;;2.85;1.10;;;8.70;99.90;;;;;;5037246;28;20024;-58
2023/10/27 02:56:10;;;;;;;1.73;1.02;;;8.70;99.90;;;;;;5031421;28;20044;-57
2023/10/27 02:58:36;;;;;;;2.50;1.00;;;8.70;99.90;;;;;;5030578;28;20031;-56
2023/10/27 03:01:14;;;;;;;2.30;1.15;;;8.70;99.90;;;;;;5027691;28;20535;-58
2023/10/27 03:03:39;;;;;;;1.40;1.10;;;8.70;99.90;;;;;;5032207;28;20029;-56
2023/10/27 03:06:05;;;;;;;1.80;1.08;;;8.70;99.90;;;;;;5031432;28;20037;-56
2023/10/27 03:08:33;;;;;;;1.65;1.33;;;8.70;99.90;;;;;;5032685;28;20080;-56
2023/10/27 03:10:59;;;;;;;1.98;1.55;;;8.70;99.90;;;;;;5027934;28;20033;-53
2023/10/27 03:13:26;;;;;;;3.20;1.17;;;8.70;99.90;;;;;;5034770;28;20086;-58
2023/10/27 03:15:52;;;;;;;2.90;1.30;;;8.70;99.90;;;;;;5035847;28;20140;-57
2023/10/27 03:18:17;;;;;;;3.05;1.40;;;8.60;99.90;;;;;;5034516;28;20057;-58
2023/10/27 03:20:43;;;;;;;1.70;1.15;;;8.60;99.90;;;;;;5030516;28;20021;-59
2023/10/27 03:23:09;;;;;;;3.90;1.30;;;8.60;99.90;;;;;;5035484;28;20091;-59
2023/10/27 03:25:34;;;;;;;2.58;1.23;;;8.60;99.90;;;;;;5035727;28;20087;-55
2023/10/27 03:28:00;;;;;;;2.67;1.42;;;8.60;99.90;;;;;;5035841;28;20033;-55
2023/10/27 03:30:27;;;;;;;1.30;1.15;;;8.60;99.90;;;;;;5036413;28;20032;-57
2023/10/27 03:32:53;;;;;;;2.80;1.20;;;8.60;99.90;;;;;;5035266;28;20364;-57
2023/10/27 03:35:19;;;;;;;2.00;1.30;;;8.60;99.90;;;;;;5035139;28;20029;-54
2023/10/27 03:37:45;;;;;;;2.78;1.55;;;8.60;99.90;;;;;;5034240;28;20601;-58
2023/10/27 03:40:11;;;;;;;1.90;1.50;;;8.60;99.90;;;;;;5033581;28;20033;-55
2023/10/27 03:42:37;;;;;;;1.45;1.27;;;8.60;99.90;;;;;;5035714;28;20028;-57
2023/10/27 03:45:03;;;;;;;4.55;1.70;;;8.60;99.90;;;;;;5035311;28;20033;-56
2023/10/27 03:47:28;;;;;;;1.80;1.55;;;8.60;99.90;;;;;;5033216;28;20029;-57
2023/10/27 03:49:54;;;;;;;2.00;1.73;;;8.60;99.90;;;;;;5034708;28;20087;-58
2023/10/27 03:52:19;;;;;;;2.20;1.35;;;8.60;99.90;;;;;;5035119;28;20105;-59
2023/10/27 03:54:45;;;;;;;2.58;1.77;;;8.50;99.90;;;;;;5036480;28;20033;-58
2023/10/27 03:57:10;;;;;;;2.47;1.58;;;8.50;99.90;;;;;;5030833;28;20037;-56
2023/10/27 03:59:36;;;;;;;1.60;1.50;;;8.50;99.90;;;;;;5035306;28;20065;-59
2023/10/27 04:02:01;;;;;;;3.10;1.88;;;8.50;99.90;;;;;;5034653;28;20180;-59
2023/10/27 04:04:27;;;;;;;1.95;1.65;;;8.50;99.90;;;;;;5032470;28;20438;-57
2023/10/27 04:06:54;;;;;;;1.80;1.45;;;8.50;99.90;;;;;;5030194;28;20398;-56
2023/10/27 04:09:21;;;;;;;2.58;1.60;;;8.50;99.90;;;;;;5035190;28;20029;-58
2023/10/27 04:11:47;;;;;;;2.63;1.70;;;8.40;99.90;;;;;;5031784;28;20615;-57
2023/10/27 04:14:12;;;;;;;2.35;1.27;;;8.50;99.90;;;;;;5034734;28;20029;-58
2023/10/27 04:16:38;;;;;;;2.88;1.35;;;8.40;99.90;;;;;;5032094;28;20022;-58
2023/10/27 04:19:03;;;;;;;1.48;1.30;;;8.40;99.90;;;;;;5034313;28;20031;-56
2023/10/27 04:21:29;;;;;;;2.85;1.35;;;8.40;99.90;;;;;;5030216;28;20021;-59
2023/10/27 04:23:55;;;;;;;2.60;1.40;;;8.40;99.90;;;;;;5033631;28;20030;-59
2023/10/27 04:26:21;;;;;;;3.47;1.15;;;8.40;99.90;;;;;;5033771;28;20029;-57
2023/10/27 04:28:47;;;;;;;1.60;1.02;;;8.40;99.90;;;;;;5031305;28;20492;-59
2023/10/27 04:31:12;;;;;;;2.83;1.30;;;8.40;99.90;;;;;;5031326;28;20128;-58
2023/10/27 04:33:38;;;;;;;1.42;1.20;;;8.40;99.90;;;;;;5032422;28;20021;-59
2023/10/27 04:36:07;;;;;;;2.10;1.10;;;8.40;99.90;;;;;;5032524;28;20068;-60
2023/10/27 04:38:32;;;;;;;1.77;1.15;;;8.40;99.90;;;;;;5031640;28;20090;-59
2023/10/27 04:40:58;;;;;;;1.83;1.30;;;8.40;99.90;;;;;;5028518;28;20554;-59
2023/10/27 04:43:23;;;;;;;1.90;1.15;;;8.40;99.90;;;;;;5034980;28;20044;-60
2023/10/27 04:45:49;;;;;;;1.48;0.98;;;8.30;99.90;;;;;;5029790;28;20018;-60
2023/10/27 04:48:15;;;;;;;1.70;1.25;;;8.40;99.90;;;;;;5033391;28;20493;-57
2023/10/27 04:50:41;;;;;;;2.45;1.33;;;8.40;99.90;;;;;;5030810;28;20102;-59
2023/10/27 04:53:07;;;;;;;1.45;1.08;;;8.30;99.90;;;;;;5030312;28;20032;-59
2023/10/27 04:55:33;;;;;;;2.92;1.63;;;8.30;99.90;;;;;;5033177;28;20029;-59
2023/10/27 04:57:58;;;;;;;1.23;1.13;;;8.40;99.90;;;;;;5029898;28;20025;-57
2023/10/27 05:00:24;;;;;;;2.08;1.30;;;8.40;99.90;;;;;;5031177;28;20037;-59
2023/10/27 05:02:53;;;;;;;1.48;1.20;;;8.40;99.90;;;;;;5033048;28;20457;-57
2023/10/27 05:05:20;;;;;;;2.92;1.35;;;8.30;99.90;;;;;;5030449;28;20143;-59
2023/10/27 05:07:46;;;;;;;2.28;1.33;;;8.30;99.90;;;;;;5030329;28;20107;-59
2023/10/27 05:10:12;;;;;;;1.63;1.50;;;8.30;99.90;;;;;;5030327;28;20628;-59
2023/10/27 05:12:37;;;;;;;2.78;1.40;;;8.30;99.90;;;;;;5032964;28;20082;-58
2023/10/27 05:15:03;;;;;;;3.67;1.90;;;8.30;99.90;;;;;;5030751;28;20029;-57
2023/10/27 05:17:32;;;;;;;3.35;1.67;;;8.30;99.90;;;;;;5030984;28;20033;-56
2023/10/27 05:19:58;;;;;;;2.63;1.80;;;8.30;99.90;;;;;;5028849;28;20033;-59
2023/10/27 05:22:23;;;;;;;2.08;1.70;;;8.30;99.90;;;;;;5021666;28;20029;-58
2023/10/27 05:24:49;;;;;;;2.63;1.45;;;8.30;99.90;;;;;;5030253;28;20032;-59
2023/10/27 05:27:15;;;;;;;2.78;1.48;;;8.30;99.90;;;;;;5028286;28;20033;-56
2023/10/27 05:29:40;;;;;;;3.60;1.90;;;8.30;99.90;;;;;;5032722;28;20117;-56
2023/10/27 05:32:06;;;;;;;2.58;1.35;;;8.30;99.90;;;;;;5028932;28;20429;-58
2023/10/27 05:34:31;;;;;;;2.10;1.70;;;8.30;99.90;;;;;;5030734;28;20026;-57
2023/10/27 05:36:57;;;;;;;3.00;1.50;;;8.30;99.90;;;;;;5023553;28;20702;-58
2023/10/27 05:39:26;;;;;;;2.70;1.77;;;8.30;99.90;;;;;;5029101;28;20038;-58
2023/10/27 05:41:52;;;;;;;2.05;1.58;;;8.30;99.90;;;;;;5030490;28;20013;-57
2023/10/27 05:44:17;;;;;;;2.17;1.65;;;8.30;99.90;;;;;;5029754;28;20029;-56
2023/10/27 05:46:43;;;;;;;2.58;2.20;;;8.30;99.90;;;;;;5031949;28;20032;-59
2023/10/27 05:49:09;;;;;;;2.13;1.85;;;8.30;99.90;;;;;;5029391;28;20038;-54
2023/10/27 05:51:35;;;;;;;4.72;1.55;;;8.30;99.90;;;;;;5029704;28;20060;-56
2023/10/27 05:54:02;;;;;;;3.63;1.80;;;8.30;99.90;;;;;;5027231;28;20586;-59
2023/10/27 05:56:27;;;;;;;4.85;1.98;;;8.30;99.90;;;;;;5026631;28;20092;-58
2023/10/27 05:58:54;;;;;;;3.05;2.03;;;8.30;99.90;;;;;;5027658;28;20489;-59
2023/10/27 06:01:19;;;;;;;3.95;1.65;;;8.30;99.90;;;;;;5027258;28;20565;-57
2023/10/27 06:03:48;;;;;;;3.78;2.08;;;8.30;99.90;;;;;;5030744;28;20025;-57
2023/10/27 06:06:14;;;;;;;3.33;2.20;;;8.30;99.90;;;;;;5027614;28;20466;-59
2023/10/27 06:08:44;;;;;;;3.10;1.77;;;8.30;99.90;;;;;;5027924;28;20060;-56
2023/10/27 06:11:10;;;;;;;2.50;1.48;;;8.30;99.90;;;;;;5027958;28;20029;-58
2023/10/27 06:13:36;;;;;;;2.30;1.67;;;8.30;99.90;;;;;;5030371;28;20022;-56
2023/10/27 06:16:02;;;;;;;3.00;2.50;;;8.30;99.90;;;;;;5027727;28;20022;-59
2023/10/27 06:18:28;;;;;;;4.75;2.22;;;8.30;99.90;;;;;;5029934;28;20017;-54
2023/10/27 06:20:53;;;;;;;4.20;2.28;;;8.30;99.90;;;;;;5029431;28;20075;-60
2023/10/27 06:23:19;;;;;;;3.80;2.20;;;8.30;99.90;;;;;;5027077;28;20026;-59
2023/10/27 06:25:45;;;;;;;2.78;2.10;;;8.20;99.90;;;;;;5030607;28;20033;-57
2023/10/27 06:28:10;;;;;;;3.58;1.77;;;8.30;99.90;;;;;;5027884;28;20041;-59
2023/10/27 06:30:36;;;;;;;4.28;2.42;;;8.30;99.90;;;;;;5025284;28;20038;-58
2023/10/27 06:33:02;;;;;;;4.47;2.05;;;8.20;99.90;;;;;;5026310;28;20099;-58
2023/10/27 06:35:28;;;;;;;3.20;2.15;;;8.30;99.90;;;;;;5027892;28;20354;-57
2023/10/27 06:37:54;;;;;;;4.55;2.55;;;8.30;99.90;;;;;;5027183;28;20013;-59
2023/10/27 06:40:19;;;;;;;3.83;2.10;;;8.30;99.90;;;;;;5026020;28;20025;-61
2023/10/27 06:42:45;;;;;;;3.47;2.42;;;8.30;99.90;;;;;;5029199;28;20025;-57
2023/10/27 06:45:10;;;;;;;3.25;1.67;;;8.30;99.90;;;;;;5024942;28;20033;-61
2023/10/27 06:47:37;;;;;;;3.30;2.03;;;8.30;99.90;;;;;;5028956;28;20033;-58
2023/10/27 06:50:04;;;;;;;3.00;1.88;;;8.30;99.90;;;;;;5023272;28;20026;-59
2023/10/27 06:52:30;;;;;;;4.35;2.72;;;8.30;99.90;;;;;;5028335;28;20022;-59
2023/10/27 06:54:56;;;;;;;3.95;2.70;;;8.30;99.90;;;;;;5029935;28;20604;-58
2023/10/27 06:57:22;;;;;;;3.67;1.80;;;8.30;99.90;;;;;;5025173;28;20109;-58
2023/10/27 06:59:47;;;;;;;5.32;2.30;;;8.30;99.90;;;;;;5031918;28;20021;-58
2023/10/27 07:02:13;;;;;;;5.88;2.20;;;8.30;99.90;;;;;;5031625;28;20025;-60
2023/10/27 07:04:38;;;;;;;3.78;2.20;;;8.30;99.90;;;;;;5030596;28;20493;-61
2023/10/27 07:07:05;;;;;;;3.10;1.90;;;8.30;99.90;;;;;;5030660;28;20784;-60
2023/10/27 07:09:31;;;;;;;1.95;1.70;;;8.30;99.90;;;;;;5027776;28;20520;-60
2023/10/27 07:11:57;;;;;;;2.08;1.85;;;8.30;99.90;;;;;;5030068;28;20416;-59
2023/10/27 07:14:23;;;;;;;2.25;1.83;;;8.30;99.90;;;;;;5030880;28;20021;-60
2023/10/27 07:16:51;;;;;;;2.58;1.85;;;8.40;99.90;;;;;;5031123;28;20032;-60
2023/10/27 07:19:18;;;;;;;3.00;2.00;;;8.30;99.90;;;;;;5029700;28;20018;-60
2023/10/27 07:21:44;;;;;;;4.10;1.40;;;8.30;99.90;;;;;;5028575;28;20014;-59
2023/10/27 07:24:10;;;;;;;2.55;1.75;;;8.30;99.90;;;;;;5030431;28;20379;-59
2023/10/27 07:26:35;;;;;;;1.80;1.55;;;8.40;99.90;;;;;;5031126;28;20044;-59
2023/10/27 07:29:01;;;;;;;2.67;1.80;;;8.40;99.90;;;;;;5028689;28;20013;-59
2023/10/27 07:31:27;;;;;;;2.50;1.55;;;8.40;99.90;;;;;;5030393;28;20036;-60
2023/10/27 07:33:54;;;;;;;2.05;1.55;;;8.40;99.90;;;;;;5028822;28;20033;-60
2023/10/27 07:36:19;;;;;;;4.10;1.73;;;8.40;99.90;;;;;;5027839;28;20022;-60
2023/10/27 07:38:45;;;;;;;4.13;1.50;;;8.40;99.90;;;;;;5029129;28;20022;-59
2023/10/27 07:41:10;;;;;;;3.35;1.70;;;8.40;99.90;;;;;;5030066;28;20528;-57
2023/10/27 07:43:37;;;;;;;2.33;1.38;;;8.40;99.90;;;;;;5030264;28;20684;-60
2023/10/27 07:46:03;;;;;;;4.13;1.35;;;8.50;99.90;;;;;;5028180;28;20029;-57
2023/10/27 07:48:29;;;;;;;1.92;1.70;;;8.50;99.90;;;;;;5028898;28;20032;-56
2023/10/27 07:50:57;;;;;;;2.63;1.23;;;8.50;99.90;;;;;;5026066;28;20034;-59
2023/10/27 07:53:24;;;;;;;1.33;1.23;;;8.50;99.90;;;;;;5028611;28;20053;-57
2023/10/27 07:55:50;;;;;;;2.33;1.73;;;8.50;99.90;;;;;;5027264;28;20033;-59
2023/10/27 07:58:15;;;;;;;1.70;1.33;;;8.50;99.90;;;;;;5025046;28;20044;-59
2023/10/27 08:00:41;;;;;;;1.55;1.45;;;8.50;99.90;;;;;;5030317;28;20036;-58
2023/10/27 08:03:06;;;;;;;2.28;1.17;;;8.60;99.90;;;;;;5028095;28;20102;-60
2023/10/27 08:05:32;;;;;;;1.70;1.25;;;8.60;99.90;;;;;;5028895;28;20069;-58
2023/10/27 08:07:58;;;;;;;2.33;1.73;;;8.60;99.90;;;;;;5025620;28;20040;-58
2023/10/27 08:10:24;;;;;;;3.03;1.70;;;8.60;99.90;;;;;;5025344;28;20063;-59
2023/10/27 08:12:50;;;;;;;2.33;1.52;;;8.60;99.90;;;;;;5029464;28;20017;-57
2023/10/27 08:15:16;;;;;;;2.38;1.17;;;8.60;99.90;;;;;;5026414;28;20041;-59
2023/10/27 08:17:42;;;;;;;2.88;1.63;;;8.60;99.90;;;;;;5026350;28;20044;-57
2023/10/27 08:20:08;;;;;;;2.78;1.30;;;8.70;99.90;;;;;;5028091;28;20104;-59
2023/10/27 08:22:34;;;;;;;4.75;1.35;;;8.70;99.90;;;;;;5028039;28;20089;-59
2023/10/27 08:25:00;;;;;;;1.52;1.02;;;8.70;99.90;;;;;;5020946;28;20647;-59
2023/10/27 08:27:26;;;;;;;6.22;1.70;;;8.70;99.90;;;;;;5023354;28;20051;-60
2023/10/27 08:29:56;;;;;;;2.65;1.38;;;8.70;99.90;;;;;;5025510;28;20029;-60
2023/10/27 08:32:24;;;;;;;1.60;1.08;;;8.70;99.90;;;;;;5021391;28;20029;-61
2023/10/27 08:34:49;;;;;;;1.83;1.33;;;8.70;99.90;;;;;;5025279;28;20028;-58
2023/10/27 08:37:16;;;;;;;3.63;1.40;;;8.70;99.90;;;;;;5027982;28;20644;-60
2023/10/27 08:39:42;;;;;;;1.48;1.20;;;8.80;99.90;;;;;;5027225;28;20565;-59
2023/10/27 08:42:08;;;;;;;2.50;1.10;;;8.80;99.90;;;;;;5026987;28;20025;-61
2023/10/27 08:44:34;;;;;;;2.88;1.25;;;8.80;99.90;;;;;;5028480;28;20040;-61
2023/10/27 08:47:03;;;;;;;1.60;1.38;;;8.80;99.90;;;;;;5024257;28;20064;-60
2023/10/27 08:49:28;;;;;;;3.78;1.58;;;8.80;99.90;;;;;;5028391;28;20053;-61
2023/10/27 08:51:56;;;;;;;2.28;1.35;;;8.80;99.90;;;;;;5027634;28;20053;-60
2023/10/27 08:54:22;;;;;;;3.22;1.35;;;8.80;99.90;;;;;;5026942;28;20502;-60
2023/10/27 08:56:47;;;;;;;2.30;1.60;;;8.80;99.90;;;;;;5022109;28;20086;-58
2023/10/27 08:59:13;;;;;;;2.25;1.50;;;8.90;99.90;;;;;;5023073;28;20644;-60
2023/10/27 09:01:39;;;;;;;2.75;1.00;;;8.80;99.90;;;;;;5027998;28;20028;-60
2023/10/27 09:04:10;;;;;;;1.52;1.35;;;8.90;99.90;;;;;;5022379;28;20519;-58
2023/10/27 09:06:36;;;;;;;3.60;1.50;;;8.90;99.90;;;;;;5021964;28;20052;-57
2023/10/27 09:09:05;;;;;;;1.83;1.25;;;8.90;99.90;;;;;;5020058;28;20037;-59
2023/10/27 09:11:48;;;;;;;1.00;0.90;;;8.90;99.90;;;;;;5020952;28;20041;-59
2023/10/27 09:14:30;;;;;;;2.00;1.38;;;8.90;99.90;;;;;;5020438;28;20030;-59
2023/10/27 09:17:07;;;;;;;1.80;1.40;;;8.90;99.90;;;;;;5019328;28;20025;-60
2023/10/27 09:19:33;;;;;;;3.45;1.70;;;8.90;99.90;;;;;;5027749;28;20023;-60
2023/10/27 09:21:59;;;;;;;3.05;1.30;;;8.90;99.90;;;;;;5025429;28;20044;-58
2023/10/27 09:24:26;;;;;;;3.40;1.73;;;8.90;99.90;;;;;;5026767;28;20033;-60
2023/10/27 09:26:56;;;;;;;2.75;1.73;;;8.90;99.90;;;;;;5025901;28;20013;-60
2023/10/27 09:29:22;;;;;;;1.13;1.00;;;8.90;99.90;;;;;;5025052;28;20624;-57
2023/10/27 09:31:50;;;;;;;1.73;1.20;;;8.90;99.90;;;;;;5027186;28;20029;-59
2023/10/27 09:34:18;;;;;;;1.52;1.25;;;8.90;99.90;;;;;;5026503;28;20094;-59
2023/10/27 09:36:45;;;;;;;1.83;1.40;;;8.90;99.90;;;;;;5027291;28;20033;-61
2023/10/27 09:39:16;;;;;;;1.88;1.05;;;8.90;99.90;;;;;;5026185;28;20069;-59
2023/10/27 09:42:06;;;;;;;3.08;1.13;;;9.00;99.90;;;;;;5026345;28;20031;-60
2023/10/27 09:45:06;;;;;;;2.70;1.27;;;9.00;99.90;;;;;;5025974;28;20490;-59
2023/10/27 09:47:45;;;;;;;1.65;1.00;;;9.00;99.90;;;;;;5026583;28;20029;-59
2023/10/27 09:50:14;;;;;;;1.48;1.00;;;9.00;99.90;;;;;;5024479;28;20489;-60
2023/10/27 09:52:43;;;;;;;2.35;1.33;;;9.00;99.90;;;;;;5027128;28;20648;-59
2023/10/27 09:55:12;;;;;;;1.83;1.23;;;9.00;99.90;;;;;;5025614;28;20032;-60
2023/10/27 09:57:38;;;;;;;1.95;1.30;;;9.00;99.90;;;;;;5022321;28;20073;-60
2023/10/27 10:00:07;;;;;;;1.15;0.80;;;9.00;99.90;;;;;;5024264;28;20025;-59
2023/10/27 10:02:35;;;;;;;1.50;1.00;;;9.00;99.90;;;;;;5025264;28;20029;-60
2023/10/27 10:05:01;;;;;;;1.52;1.10;;;9.00;99.90;;;;;;5025837;28;20022;-60
2023/10/27 10:07:54;;;;;;;1.17;1.00;;;9.00;99.90;;;;;;5026028;28;20026;-62
2023/10/27 10:10:22;;;;;;;0.95;0.93;;;9.00;99.90;;;;;;5020692;28;20029;-57
2023/10/27 10:13:02;;;;;;;2.83;1.17;;;9.00;99.90;;;;;;5024916;28;20029;-60
2023/10/27 10:15:29;;;;;;;1.67;1.20;;;9.00;99.90;;;;;;5022287;28;20115;-60
2023/10/27 10:17:55;;;;;;;4.35;1.70;;;9.00;99.90;;;;;;5025863;28;20458;-59
2023/10/27 10:20:49;;;;;;;2.03;1.50;;;9.00;99.90;;;;;;5025802;28;20120;-59
2023/10/27 10:23:16;;;;;;;2.75;1.50;;;9.10;99.90;;;;;;5025431;28;20035;-60
2023/10/27 10:25:52;;;;;;;1.55;1.30;;;9.00;99.90;;;;;;5027621;28;20550;-60
2023/10/27 10:28:17;;;;;;;;;;;9.00;99.90;;;;;;5028163;28;20067;-57
2023/10/27 10:30:44;;;;;;;2.93;1.20;;;9.00;99.90;;;;;;5027244;28;20214;-58
2023/10/27 10:33:16;;;;;;;2.45;1.10;;;9.10;99.90;;;;;;5028995;28;20041;-60
2023/10/27 10:35:42;;;;;;;1.25;1.15;;;9.10;99.90;;;;;;5026516;28;20017;-57
2023/10/27 10:38:22;;;;;;;1.70;1.40;;;9.10;99.90;;;;;;5024656;28;20025;-55
2023/10/27 10:40:56;;;;;;;2.03;1.13;;;9.10;99.90;;;;;;5027969;28;20120;-60
2023/10/27 10:43:26;;;;;;;3.10;0.93;;;9.10;99.90;;;;;;5028815;28;20021;-58
2023/10/27 10:45:57;;;;;;;1.17;0.90;;;9.10;99.90;;;;;;5028376;28;20071;-57
2023/10/27 10:48:44;;;;;;;6.32;1.30;;;9.20;99.90;;;;;;5027752;28;20083;-60
2023/10/27 10:51:13;;;;;;;1.13;1.02;;;9.20;99.90;;;;;;5027512;28;20029;-59
2023/10/27 10:53:39;;;;;;;1.73;1.08;;;9.30;99.90;;;;;;5024076;28;20058;-60
2023/10/27 10:56:05;;;;;;;1.10;1.00;;;9.30;99.90;;;;;;5026854;28;20283;-59
2023/10/27 10:58:32;;;;;;;2.28;1.17;;;9.40;99.90;;;;;;5024484;28;20205;-59
2023/10/27 11:00:59;;;;;;;1.25;0.90;;;9.30;99.90;;;;;;5024554;28;20541;-59
2023/10/27 11:03:28;;;;;;;2.05;1.35;;;9.40;99.90;;;;;;5028192;28;20684;-57
2023/10/27 11:06:01;;;;;;;0.93;0.80;;;9.40;99.90;;;;;;5027523;28;20029;-59
2023/10/27 11:08:31;;;;;;;1.00;0.90;;;9.40;99.90;;;;;;5028057;28;20032;-59
2023/10/27 11:11:01;;;;;;;0.70;0.60;;;9.40;99.90;;;;;;5027862;28;20100;-58
2023/10/27 11:13:27;;;;;;;1.00;0.80;;;9.40;99.90;;;;;;5038346;28;20036;-55
2023/10/27 11:15:53;;;;;;;2.10;1.25;;;9.40;99.90;;;;;;5027389;28;20096;-60
2023/10/27 11:18:18;;;;;;;3.75;1.00;;;9.40;99.90;;;;;;5027415;28;20494;-59
2023/10/27 11:20:45;;;;;;;1.13;0.70;;;9.50;99.90;;;;;;5026403;28;20048;-59
2023/10/27 11:23:12;;;;;;;1.98;1.20;;;9.50;99.90;;;;;;5027367;28;20025;-59
2023/10/27 11:25:39;;;;;;;2.97;0.88;;;9.50;99.90;;;;;;5027992;28;20075;-57
2023/10/27 11:28:37;;;;;;;2.42;1.02;;;9.60;99.90;;;;;;5027329;28;20053;-59
2023/10/27 11:31:15;;;;;;;1.08;0.73;;;9.60;99.90;;;;;;5013774;28;20045;-59
2023/10/27 11:34:05;;;;;;;0.82;0.73;;;9.60;99.90;;;;;;5027125;28;20029;-59
2023/10/27 11:36:35;;;;;;;2.92;1.02;;;9.60;99.90;;;;;;5023884;28;20402;-60
2023/10/27 11:39:13;;;;;;;1.30;1.15;;;9.60;99.90;;;;;;5025957;28;20118;-59
2023/10/27 11:41:40;;;;;;;2.45;1.20;;;9.60;99.90;;;;;;5022167;28;20464;-59
2023/10/27 11:44:05;;;;;;;1.25;1.15;;;9.60;99.90;;;;;;5026922;28;20030;-57
2023/10/27 11:46:32;;;;;;;1.10;1.00;;;9.60;99.90;;;;;;5026940;28;20078;-57
2023/10/27 11:48:58;;;;;;;1.50;1.10;;;9.70;99.90;;;;;;5026219;28;20025;-59
2023/10/27 11:51:23;;;;;;;1.35;1.25;;;9.60;99.90;;;;;;5023475;28;20048;-57
2023/10/27 11:53:49;;;;;;;2.05;1.20;;;9.70;99.90;;;;;;5025693;28;20034;-61
2023/10/27 11:56:14;;;;;;;1.40;1.08;;;9.70;99.90;;;;;;5023787;28;20033;-60
2023/10/27 11:58:40;;;;;;;1.35;1.00;;;9.70;99.90;;;;;;5024399;28;20025;-59
2023/10/27 12:01:06;;;;;;;1.88;1.33;;;9.70;99.90;;;;;;5026173;28;20072;-60
2023/10/27 12:03:31;;;;;;;1.67;1.00;;;9.80;99.90;;;;;;5018376;28;20096;-57
2023/10/27 12:05:57;;;;;;;2.00;0.93;;;9.70;99.90;;;;;;5020093;28;20038;-57
2023/10/27 12:08:23;;;;;;;1.65;1.30;;;9.80;99.90;;;;;;5021083;28;20037;-58
2023/10/27 12:10:52;;;;;;;1.63;1.20;;;9.80;99.90;;;;;;5022143;28;20017;-59
2023/10/27 12:13:22;;;;;;;2.10;1.15;;;9.80;99.90;;;;;;5016308;28;20033;-56
2023/10/27 12:15:47;;;;;;;1.92;1.30;;;9.80;99.90;;;;;;5020148;28;20022;-57
2023/10/27 12:18:14;;;;;;;3.83;1.50;;;9.80;99.90;;;;;;5020805;28;20509;-57
2023/10/27 12:20:40;;;;;;;1.92;1.00;;;9.80;99.90;;;;;;5021192;28;20013;-60
2023/10/27 12:23:07;;;;;;;1.52;1.00;;;9.80;99.90;;;;;;5025458;28;20044;-59
2023/10/27 12:25:36;;;;;;;1.50;1.35;;;9.80;99.90;;;;;;5021546;28;20108;-57
2023/10/27 12:28:02;;;;;;;2.03;1.15;;;9.80;99.90;;;;;;5024080;28;20049;-58
2023/10/27 12:30:28;;;;;;;1.67;1.05;;;9.80;99.90;;;;;;5014865;28;20040;-56
2023/10/27 12:32:53;;;;;;;1.65;1.27;;;9.80;99.90;;;;;;5017929;28;20041;-57
2023/10/27 12:35:22;;;;;;;1.10;1.00;;;9.80;99.90;;;;;;5023890;28;20129;-58
2023/10/27 12:37:53;;;;;;;1.27;0.80;;;9.80;99.90;;;;;;5023054;28;20018;-60
2023/10/27 12:40:19;;;;;;;1.67;1.10;;;9.80;99.90;;;;;;5021122;28;20032;-59
2023/10/27 12:42:44;;;;;;;1.13;0.88;;;9.80;99.90;;;;;;5025489;28;20033;-60
2023/10/27 12:45:13;;;;;;;1.27;1.00;;;9.80;99.90;;;;;;5024214;28;20679;-61
2023/10/27 12:47:41;;;;;;;1.42;0.98;;;9.80;99.90;;;;;;5015808;28;20026;-58
2023/10/27 12:50:10;;;;;;;2.50;1.33;;;9.80;99.90;;;;;;5021248;28;20525;-60
2023/10/27 12:52:37;;;;;;;2.75;1.50;;;9.80;99.90;;;;;;5017536;28;20041;-60
2023/10/27 12:55:06;;;;;;;2.30;1.23;;;9.80;99.90;;;;;;5024992;28;20032;-57
2023/10/27 12:57:32;;;;;;;2.00;1.33;;;9.80;99.90;;;;;;5020591;28;20481;-59